createdAt,value
2023-04-15T00:01:26.394Z,57.00
2023-04-15T00:03:58.998Z,57.00
2023-04-15T00:06:27.889Z,57.00
2023-04-15T00:08:59.729Z,57.00
2023-04-15T00:11:36.236Z,57.00
2023-04-15T00:14:08.877Z,57.00
2023-04-15T00:16:39.331Z,57.00
2023-04-15T00:19:10.588Z,57.00
2023-04-15T00:21:38.670Z,57.00
2023-04-15T00:24:08.857Z,57.00
2023-04-15T00:26:36.912Z,57.00
2023-04-15T00:29:09.271Z,57.00
2023-04-15T00:31:40.676Z,57.00
2023-04-15T00:34:09.393Z,57.00
2023-04-15T00:39:23.926Z,57.10
2023-04-15T00:41:52.090Z,57.00
2023-04-15T00:44:23.309Z,57.00
2023-04-15T00:46:56.053Z,57.00
2023-04-15T00:49:29.580Z,57.10
2023-04-15T00:52:00.980Z,57.10
2023-04-15T00:54:33.550Z,57.10
2023-04-15T00:57:09.646Z,57.10
2023-04-15T00:59:41.946Z,57.10
2023-04-15T01:02:11.878Z,57.00
2023-04-15T01:04:43.642Z,57.00
2023-04-15T01:07:17.131Z,57.00
2023-04-15T01:09:47.768Z,57.00
2023-04-15T01:12:22.654Z,57.00
2023-04-15T01:14:52.257Z,57.00
2023-04-15T01:17:21.184Z,57.10
2023-04-15T01:19:53.625Z,57.00
2023-04-15T01:22:24.400Z,57.00
2023-04-15T01:25:12.922Z,57.00
2023-04-15T01:27:42.585Z,57.00
2023-04-15T01:30:13.975Z,57.10
2023-04-15T01:32:47.853Z,57.00
2023-04-15T01:35:18.250Z,57.00
2023-04-15T01:37:50.793Z,57.00
2023-04-15T01:40:24.853Z,57.10
2023-04-15T01:42:56.322Z,57.10
2023-04-15T01:45:27.075Z,57.00
2023-04-15T01:47:56.503Z,57.00
2023-04-15T01:50:30.158Z,57.00
2023-04-15T01:53:01.528Z,57.00
2023-04-15T01:55:33.106Z,57.00
2023-04-15T01:58:04.251Z,57.00
2023-04-15T02:00:35.410Z,57.10
2023-04-15T02:03:06.797Z,57.10
2023-04-15T02:05:39.312Z,57.10
2023-04-15T02:08:09.006Z,57.10
2023-04-15T02:10:46.383Z,57.10
2023-04-15T02:13:17.882Z,57.10
2023-04-15T02:15:54.306Z,57.10
2023-04-15T02:18:24.622Z,57.10
2023-04-15T02:20:57.318Z,57.10
2023-04-15T02:23:28.373Z,57.10
2023-04-15T02:25:56.518Z,57.10
2023-04-15T02:28:27.662Z,57.10
2023-04-15T02:30:59.633Z,57.10
2023-04-15T02:33:30.430Z,57.10
2023-04-15T02:35:59.611Z,57.10
2023-04-15T02:38:31.910Z,57.10
2023-04-15T02:41:02.960Z,57.10
2023-04-15T02:43:35.581Z,57.10
2023-04-15T02:46:07.058Z,57.10
2023-04-15T02:48:37.772Z,57.10
2023-04-15T02:51:19.239Z,57.10
2023-04-15T02:56:30.431Z,57.10
2023-04-15T02:59:01.995Z,57.10
2023-04-15T03:01:33.953Z,57.10
2023-04-15T03:04:06.021Z,57.10
2023-04-15T03:06:35.462Z,57.10
2023-04-15T03:09:08.052Z,57.10
2023-04-15T03:11:43.513Z,57.10
2023-04-15T03:14:18.981Z,57.10
2023-04-15T03:16:48.202Z,57.10
2023-04-15T03:19:19.302Z,57.10
2023-04-15T03:21:47.556Z,57.10
2023-04-15T03:24:16.863Z,57.10
2023-04-15T03:26:50.673Z,57.10
2023-04-15T03:29:22.283Z,57.10
2023-04-15T03:31:53.007Z,57.20
2023-04-15T03:34:22.061Z,57.20
2023-04-15T03:36:51.696Z,57.20
2023-04-15T03:39:22.414Z,57.20
2023-04-15T03:41:53.181Z,57.30
2023-04-15T03:44:23.495Z,57.20
2023-04-15T03:46:54.400Z,57.20
2023-04-15T03:49:27.415Z,57.20
2023-04-15T03:51:58.419Z,57.20
2023-04-15T03:54:29.588Z,57.20
2023-04-15T03:57:01.397Z,57.20
2023-04-15T03:59:31.635Z,57.20
2023-04-15T04:02:04.510Z,57.20
2023-04-15T04:04:36.036Z,57.20
2023-04-15T04:07:05.972Z,57.20
2023-04-15T04:09:36.683Z,57.20
2023-04-15T04:12:06.968Z,57.10
2023-04-15T04:14:36.465Z,57.20
2023-04-15T04:17:05.903Z,57.10
2023-04-15T04:19:38.819Z,57.10
2023-04-15T04:22:11.307Z,57.20
2023-04-15T04:24:40.542Z,57.10
2023-04-15T04:27:16.044Z,57.20
2023-04-15T04:29:46.867Z,57.10
2023-04-15T04:32:16.195Z,57.20
2023-04-15T04:34:44.601Z,57.10
2023-04-15T04:37:14.763Z,57.10
2023-04-15T04:39:46.635Z,57.10
2023-04-15T04:42:16.749Z,57.10
2023-04-15T04:44:48.318Z,57.10
2023-04-15T04:47:17.775Z,57.10
2023-04-15T04:49:47.929Z,57.10
2023-04-15T04:52:18.451Z,57.10
2023-04-15T04:54:48.010Z,57.10
2023-04-15T04:57:19.068Z,57.10
2023-04-15T04:59:50.372Z,57.10
2023-04-15T05:02:20.889Z,57.10
2023-04-15T05:04:50.897Z,57.10
2023-04-15T05:07:23.050Z,57.10
2023-04-15T05:09:54.717Z,57.10
2023-04-15T05:12:25.656Z,57.10
2023-04-15T05:14:57.736Z,57.10
2023-04-15T05:17:29.380Z,57.10
2023-04-15T05:19:59.481Z,57.10
2023-04-15T05:22:29.471Z,57.10
2023-04-15T05:25:02.851Z,57.00
2023-04-15T05:27:34.520Z,57.00
2023-04-15T05:30:03.828Z,57.00
2023-04-15T05:32:37.443Z,57.00
2023-04-15T05:35:05.887Z,57.00
2023-04-15T05:37:35.281Z,57.00
2023-04-15T05:40:04.108Z,56.90
2023-04-15T05:42:32.597Z,57.00
2023-04-15T05:45:03.795Z,56.90
2023-04-15T05:47:40.895Z,57.00
2023-04-15T05:50:10.715Z,57.00
2023-04-15T05:52:41.196Z,56.90
2023-04-15T05:57:55.336Z,56.80
2023-04-15T06:00:25.902Z,56.80
2023-04-15T06:03:03.861Z,56.90
2023-04-15T06:05:35.908Z,56.80
2023-04-15T06:08:07.967Z,56.80
2023-04-15T06:10:36.988Z,56.80
2023-04-15T06:13:05.279Z,56.70
2023-04-15T06:15:36.593Z,56.70
2023-04-15T06:18:07.630Z,56.70
2023-04-15T06:20:36.915Z,56.70
2023-04-15T06:23:07.628Z,56.60
2023-04-15T06:25:38.291Z,56.60
2023-04-15T06:28:11.827Z,56.60
2023-04-15T06:30:42.989Z,56.60
2023-04-15T06:33:13.215Z,56.60
2023-04-15T06:35:43.656Z,56.70
2023-04-15T06:38:15.003Z,56.70
2023-04-15T06:40:44.974Z,56.70
2023-04-15T06:43:15.428Z,56.70
2023-04-15T06:45:43.565Z,56.70
2023-04-15T06:48:15.821Z,56.80
2023-04-15T06:50:47.112Z,57.10
2023-04-15T06:53:21.333Z,57.40
2023-04-15T06:55:51.314Z,57.40
2023-04-15T06:58:23.132Z,57.30
2023-04-15T07:00:53.405Z,57.20
2023-04-15T07:03:24.892Z,57.20
2023-04-15T07:05:55.587Z,57.20
2023-04-15T07:08:27.109Z,57.20
2023-04-15T07:10:59.492Z,57.10
2023-04-15T07:13:29.900Z,57.10
2023-04-15T07:16:00.163Z,57.00
2023-04-15T07:18:30.503Z,57.00
2023-04-15T07:21:00.434Z,57.10
2023-04-15T07:23:32.389Z,57.00
2023-04-15T07:26:02.179Z,57.00
2023-04-15T07:28:34.080Z,57.00
2023-04-15T07:31:06.496Z,57.00
2023-04-15T07:33:38.875Z,56.90
2023-04-15T07:36:08.029Z,56.90
2023-04-15T07:38:39.973Z,56.90
2023-04-15T07:41:10.710Z,56.90
2023-04-15T07:43:42.521Z,56.90
2023-04-15T07:46:12.815Z,56.90
2023-04-15T07:48:51.655Z,56.90
2023-04-15T07:51:19.558Z,56.80
2023-04-15T07:53:54.289Z,56.90
2023-04-15T07:56:24.423Z,56.80
2023-04-15T07:58:55.792Z,56.90
2023-04-15T08:01:26.113Z,56.80
2023-04-15T08:03:58.020Z,56.80
2023-04-15T08:06:29.856Z,56.70
2023-04-15T08:08:58.051Z,56.70
2023-04-15T08:11:30.601Z,56.70
2023-04-15T08:14:00.428Z,56.70
2023-04-15T08:16:35.487Z,56.70
2023-04-15T08:19:07.535Z,56.60
2023-04-15T08:21:36.760Z,56.60
2023-04-15T08:24:06.892Z,56.60
2023-04-15T08:26:45.554Z,56.60
2023-04-15T08:29:16.527Z,56.70
2023-04-15T08:31:47.929Z,56.60
2023-04-15T08:37:03.770Z,56.60
2023-04-15T08:39:33.497Z,56.60
2023-04-15T08:42:25.473Z,56.60
2023-04-15T08:45:06.140Z,56.60
2023-04-15T08:47:40.373Z,56.60
2023-04-15T08:50:20.254Z,56.70
2023-04-15T08:52:50.573Z,56.80
2023-04-15T08:55:23.232Z,56.70
2023-04-15T08:57:55.375Z,56.80
2023-04-15T09:00:25.412Z,56.80
2023-04-15T09:02:59.374Z,57.40
2023-04-15T09:05:36.417Z,56.80
2023-04-15T09:10:57.481Z,56.70
2023-04-15T09:13:28.110Z,56.60
2023-04-15T09:16:00.844Z,56.70
2023-04-15T09:18:35.572Z,57.30
2023-04-15T09:21:18.758Z,56.60
2023-04-15T09:24:03.318Z,56.70
2023-04-15T09:26:38.708Z,56.70
2023-04-15T09:29:11.815Z,56.60
2023-04-15T09:31:41.192Z,56.50
2023-04-15T09:34:11.974Z,56.60
2023-04-15T09:36:52.426Z,56.60
2023-04-15T09:39:24.436Z,56.40
2023-04-15T09:42:12.438Z,56.30
2023-04-15T09:44:39.424Z,56.50
2023-04-15T09:47:09.494Z,56.30
2023-04-15T09:49:41.059Z,56.60
2023-04-15T09:52:09.363Z,56.60
2023-04-15T09:54:40.274Z,56.30
2023-04-15T09:57:12.839Z,56.30
2023-04-15T09:59:39.997Z,56.20
2023-04-15T10:02:11.183Z,56.20
2023-04-15T10:04:44.740Z,56.00
2023-04-15T10:07:16.068Z,56.20
2023-04-15T10:09:48.588Z,56.10
2023-04-15T10:12:22.342Z,55.90
2023-04-15T10:15:04.558Z,55.90
2023-04-15T10:17:37.940Z,55.90
2023-04-15T10:20:07.087Z,56.00
2023-04-15T10:22:40.544Z,56.10
2023-04-15T10:25:11.707Z,56.10
2023-04-15T10:27:54.292Z,56.00
2023-04-15T10:30:29.557Z,56.10
2023-04-15T10:32:59.807Z,56.20
2023-04-15T10:35:31.644Z,56.20
2023-04-15T10:38:01.642Z,56.20
2023-04-15T10:40:36.146Z,56.10
2023-04-15T10:43:09.457Z,56.00
2023-04-15T10:45:41.589Z,56.10
2023-04-15T10:48:11.674Z,56.10
2023-04-15T10:50:39.793Z,56.10
2023-04-15T10:53:16.012Z,56.10
2023-04-15T10:55:46.756Z,56.10
2023-04-15T10:58:17.814Z,56.10
2023-04-15T11:03:51.074Z,56.10
2023-04-15T11:06:24.430Z,56.10
2023-04-15T11:09:04.349Z,56.10
2023-04-15T11:12:12.020Z,56.00
2023-04-15T11:14:49.612Z,55.90
2023-04-15T11:17:31.774Z,56.10
2023-04-15T11:20:04.773Z,56.10
2023-04-15T11:22:36.522Z,56.00
2023-04-15T11:25:07.191Z,56.00
2023-04-15T11:27:38.478Z,56.00
2023-04-15T11:30:27.630Z,56.00
2023-04-15T11:32:58.964Z,56.70
2023-04-15T11:35:26.089Z,56.20
2023-04-15T11:37:59.395Z,56.10
2023-04-15T11:40:32.536Z,56.10
2023-04-15T11:43:23.334Z,56.10
2023-04-15T11:46:04.056Z,56.20
2023-04-15T11:48:35.317Z,56.20
2023-04-15T11:51:10.155Z,56.30
2023-04-15T11:53:58.739Z,56.30
2023-04-15T11:56:32.335Z,56.30
2023-04-15T11:59:05.050Z,56.30
2023-04-15T12:01:49.641Z,56.30
2023-04-15T12:04:25.180Z,56.30
2023-04-15T12:06:57.104Z,56.40
2023-04-15T12:09:28.008Z,56.40
2023-04-15T12:12:10.654Z,56.50
2023-04-15T12:14:40.323Z,56.40
2023-04-15T12:17:09.577Z,56.30
2023-04-15T12:19:45.974Z,56.50
2023-04-15T12:22:27.436Z,56.70
2023-04-15T12:27:58.906Z,56.60
2023-04-15T12:30:28.955Z,56.50
2023-04-15T12:33:00.871Z,56.60
2023-04-15T12:35:31.261Z,56.50
2023-04-15T12:38:05.762Z,56.50
2023-04-15T12:40:35.529Z,56.50
2023-04-15T12:43:06.072Z,56.50
2023-04-15T12:45:36.296Z,56.40
2023-04-15T12:48:08.201Z,56.10
2023-04-15T12:50:38.283Z,56.20
2023-04-15T12:53:10.036Z,56.00
2023-04-15T12:55:43.510Z,55.70
2023-04-15T12:58:14.527Z,55.70
2023-04-15T13:00:42.914Z,55.80
2023-04-15T13:03:14.403Z,55.80
2023-04-15T13:05:56.285Z,56.00
2023-04-15T13:08:25.517Z,56.00
2023-04-15T13:10:57.266Z,56.10
2023-04-15T13:13:29.022Z,56.10
2023-04-15T13:15:59.521Z,56.20
2023-04-15T13:18:30.007Z,56.20
2023-04-15T13:21:01.836Z,55.90
2023-04-15T13:23:39.218Z,55.90
2023-04-15T13:26:09.763Z,56.00
2023-04-15T13:28:40.227Z,55.90
2023-04-15T13:31:11.620Z,55.90
2023-04-15T13:33:39.917Z,55.80
2023-04-15T13:36:13.339Z,55.80
2023-04-15T13:38:40.474Z,55.80
2023-04-15T13:41:10.289Z,55.80
2023-04-15T13:43:40.788Z,55.70
2023-04-15T13:46:11.375Z,55.70
2023-04-15T13:48:38.177Z,55.60
2023-04-15T13:51:09.479Z,55.50
2023-04-15T13:53:41.093Z,55.30
2023-04-15T13:56:12.607Z,55.30
2023-04-15T13:58:42.032Z,55.20
2023-04-15T14:01:16.700Z,54.90
2023-04-15T14:03:48.949Z,55.10
2023-04-15T14:06:19.734Z,54.50
2023-04-15T14:08:49.779Z,54.70
2023-04-15T14:11:19.726Z,54.30
2023-04-15T14:13:49.836Z,54.70
2023-04-15T14:16:21.412Z,54.90
2023-04-15T14:18:52.719Z,54.30
2023-04-15T14:21:24.525Z,54.50
2023-04-15T14:23:55.600Z,54.20
2023-04-15T14:26:25.510Z,54.40
2023-04-15T14:28:54.289Z,54.20
2023-04-15T14:31:24.393Z,54.10
2023-04-15T14:33:55.797Z,53.80
2023-04-15T14:36:29.912Z,53.60
2023-04-15T14:38:58.428Z,53.70
2023-04-15T14:41:29.866Z,54.20
2023-04-15T14:44:00.136Z,54.00
2023-04-15T14:46:30.545Z,54.20
2023-04-15T14:49:02.355Z,54.30
2023-04-15T14:51:36.080Z,54.60
2023-04-15T14:54:08.681Z,54.30
2023-04-15T14:56:43.922Z,54.40
2023-04-15T14:59:14.701Z,54.30
2023-04-15T15:01:46.331Z,53.60
2023-04-15T15:04:16.626Z,53.80
2023-04-15T15:06:44.208Z,54.00
2023-04-15T15:09:12.859Z,53.90
2023-04-15T15:11:43.275Z,53.90
2023-04-15T15:14:14.428Z,53.90
2023-04-15T15:16:41.216Z,54.10
2023-04-15T15:19:10.923Z,53.70
2023-04-15T15:21:43.013Z,53.80
2023-04-15T15:24:21.328Z,53.60
2023-04-15T15:26:49.262Z,53.70
2023-04-15T15:29:22.036Z,53.90
2023-04-15T15:31:52.975Z,53.40
2023-04-15T15:34:21.796Z,53.40
2023-04-15T15:36:53.334Z,53.10
2023-04-15T15:39:27.827Z,53.10
2023-04-15T15:41:59.463Z,53.30
2023-04-15T15:44:32.467Z,53.40
2023-04-15T15:47:05.374Z,53.30
2023-04-15T15:49:37.183Z,53.50
2023-04-15T15:52:06.896Z,53.60
2023-04-15T15:54:38.193Z,53.80
2023-04-15T15:57:09.474Z,53.80
2023-04-15T15:59:44.459Z,53.90
2023-04-15T16:02:14.483Z,54.30
2023-04-15T16:04:45.455Z,53.90
2023-04-15T16:10:01.163Z,53.80
2023-04-15T16:12:34.812Z,54.20
2023-04-15T16:15:08.216Z,53.90
2023-04-15T16:17:36.417Z,54.30
2023-04-15T16:20:11.118Z,54.70
2023-04-15T16:22:39.637Z,54.30
2023-04-15T16:25:11.229Z,54.80
2023-04-15T16:27:57.133Z,54.70
2023-04-15T16:30:31.806Z,54.70
2023-04-15T16:33:00.227Z,54.50
2023-04-15T16:35:29.246Z,54.60
2023-04-15T16:37:58.350Z,54.60
2023-04-15T16:40:28.852Z,54.70
2023-04-15T16:42:55.945Z,54.40
2023-04-15T16:45:26.546Z,54.20
2023-04-15T16:47:56.125Z,54.30
2023-04-15T16:50:32.778Z,54.50
2023-04-15T16:53:04.024Z,54.50
2023-04-15T16:58:21.360Z,54.40
2023-04-15T17:00:50.094Z,54.40
2023-04-15T17:03:20.276Z,54.40
2023-04-15T17:05:49.663Z,54.40
2023-04-15T17:08:17.531Z,54.40
2023-04-15T17:10:44.261Z,54.40
2023-04-15T17:15:56.297Z,54.40
2023-04-15T17:18:26.626Z,54.40
2023-04-15T17:20:57.069Z,54.40
2023-04-15T17:23:28.073Z,54.40
2023-04-15T17:25:58.957Z,54.30
2023-04-15T17:28:29.253Z,54.30
2023-04-15T17:30:59.878Z,54.40
2023-04-15T17:33:59.914Z,54.40
2023-04-15T17:36:21.729Z,54.50
2023-04-15T17:38:54.621Z,54.40
2023-04-15T17:41:23.315Z,54.40
2023-04-15T17:43:53.665Z,54.50
2023-04-15T17:46:26.115Z,54.50
2023-04-15T17:48:57.219Z,54.80
2023-04-15T17:51:28.806Z,54.80
2023-04-15T17:53:58.749Z,55.10
2023-04-15T17:56:30.224Z,55.20
2023-04-15T17:59:02.286Z,55.90
2023-04-15T18:01:32.523Z,56.50
2023-04-15T18:04:05.220Z,56.70
2023-04-15T18:06:36.735Z,57.10
2023-04-15T18:09:06.780Z,57.50
2023-04-15T18:11:40.186Z,58.20
2023-04-15T18:14:11.229Z,58.20
2023-04-15T18:16:40.545Z,58.60
2023-04-15T18:19:11.252Z,58.70
2023-04-15T18:21:41.801Z,58.30
2023-04-15T18:24:13.076Z,58.80
2023-04-15T18:26:41.550Z,59.60
2023-04-15T18:29:11.652Z,59.40
2023-04-15T18:31:42.047Z,59.40
2023-04-15T18:34:13.142Z,59.00
2023-04-15T18:36:44.003Z,58.80
2023-04-15T18:39:13.283Z,59.30
2023-04-15T18:41:43.140Z,59.90
2023-04-15T18:44:15.017Z,59.90
2023-04-15T18:46:48.220Z,60.40
2023-04-15T18:49:19.241Z,60.40
2023-04-15T18:51:50.439Z,61.00
2023-04-15T18:54:23.476Z,60.60
2023-04-15T18:56:55.870Z,60.50
2023-04-15T18:59:29.769Z,60.70
2023-04-15T19:02:03.032Z,61.00
2023-04-15T19:04:33.423Z,60.30
2023-04-15T19:07:02.294Z,60.70
2023-04-15T19:09:34.229Z,60.30
2023-04-15T19:12:04.597Z,60.50
2023-04-15T19:14:34.894Z,60.00
2023-04-15T19:17:02.848Z,60.10
2023-04-15T19:19:34.136Z,59.70
2023-04-15T19:22:03.614Z,60.40
2023-04-15T19:24:34.311Z,60.50
2023-04-15T19:27:05.354Z,60.00
2023-04-15T19:29:36.134Z,60.00
2023-04-15T19:32:04.370Z,60.60
2023-04-15T19:34:33.620Z,60.60
2023-04-15T19:37:04.155Z,60.50
2023-04-15T19:39:34.879Z,60.30
2023-04-15T19:42:05.846Z,60.30
2023-04-15T19:44:35.965Z,60.30
2023-04-15T19:47:07.501Z,60.00
2023-04-15T19:49:35.759Z,60.30
2023-04-15T19:52:04.756Z,60.00
2023-04-15T19:54:36.283Z,59.80
2023-04-15T19:57:04.344Z,59.80
2023-04-15T19:59:35.724Z,59.70
2023-04-15T20:02:06.346Z,60.20
2023-04-15T20:04:37.818Z,60.00
2023-04-15T20:07:09.808Z,59.60
2023-04-15T20:09:41.525Z,59.70
2023-04-15T20:12:50.054Z,59.60
2023-04-15T20:15:00.889Z,59.60
2023-04-15T20:17:41.512Z,59.80
2023-04-15T20:20:13.564Z,60.20
2023-04-15T20:22:45.777Z,60.50
2023-04-15T20:25:14.598Z,60.30
2023-04-15T20:27:44.512Z,60.60
2023-04-15T20:30:17.415Z,60.80
2023-04-15T20:32:45.153Z,61.10
2023-04-15T20:35:16.469Z,60.60
2023-04-15T20:37:47.341Z,60.10
2023-04-15T20:40:18.594Z,60.40
2023-04-15T20:42:45.594Z,60.10
2023-04-15T20:45:16.873Z,60.50
2023-04-15T20:47:48.824Z,60.50
2023-04-15T20:50:19.246Z,60.60
2023-04-15T20:52:48.384Z,60.20
2023-04-15T20:55:20.599Z,60.10
2023-04-15T20:57:49.118Z,60.00
2023-04-15T21:00:20.700Z,60.00
2023-04-15T21:02:48.615Z,60.00
2023-04-15T21:05:16.676Z,59.90
2023-04-15T21:07:47.074Z,60.80
2023-04-15T21:10:15.142Z,60.30
2023-04-15T21:12:45.576Z,60.70
2023-04-15T21:15:18.101Z,60.20
2023-04-15T21:17:46.815Z,60.50
2023-04-15T21:20:18.901Z,60.70
2023-04-15T21:25:33.877Z,60.60
2023-04-15T21:28:04.642Z,60.20
2023-04-15T21:30:36.912Z,60.50
2023-04-15T21:33:06.843Z,60.40
2023-04-15T21:35:36.861Z,60.30
2023-04-15T21:38:08.238Z,60.20
2023-04-15T21:40:42.827Z,60.10
2023-04-15T21:43:12.190Z,60.40
2023-04-15T21:46:21.144Z,60.40
2023-04-15T21:48:37.666Z,60.20
2023-04-15T21:51:11.714Z,60.20
2023-04-15T21:53:44.478Z,60.20
2023-04-15T21:56:16.289Z,60.40
2023-04-15T21:58:46.321Z,60.30
2023-04-15T22:01:16.741Z,60.20
2023-04-15T22:03:48.939Z,60.00
2023-04-15T22:06:19.817Z,60.00
2023-04-15T22:08:56.821Z,60.10
2023-04-15T22:11:35.999Z,60.00
2023-04-15T22:14:06.779Z,60.10
2023-04-15T22:16:37.779Z,60.30
2023-04-15T22:21:53.904Z,60.50
2023-04-15T22:24:39.006Z,60.50
2023-04-15T22:27:10.556Z,60.60
2023-04-15T22:29:41.404Z,60.50
2023-04-15T22:32:13.471Z,60.50
2023-04-15T22:34:48.577Z,60.80
2023-04-15T22:37:19.635Z,60.80
2023-04-15T22:39:50.102Z,60.90
2023-04-15T22:42:19.937Z,60.80
2023-04-15T22:44:50.917Z,60.80
2023-04-15T22:47:21.936Z,60.90
2023-04-15T22:49:52.293Z,61.00
2023-04-15T22:52:30.193Z,61.10
2023-04-15T22:55:04.347Z,61.10
2023-04-15T22:57:34.910Z,61.20
2023-04-15T23:02:49.546Z,61.20
2023-04-15T23:05:20.704Z,61.30
2023-04-15T23:07:51.216Z,61.50
2023-04-15T23:10:21.240Z,61.20
2023-04-15T23:12:51.870Z,61.30
2023-04-15T23:15:22.023Z,61.40
2023-04-15T23:17:51.833Z,61.20
2023-04-15T23:20:24.854Z,61.30
2023-04-15T23:22:53.829Z,61.30
2023-04-15T23:25:27.580Z,61.30
2023-04-15T23:27:58.523Z,61.40
2023-04-15T23:30:30.323Z,61.40
2023-04-15T23:33:04.628Z,61.20
2023-04-15T23:35:32.791Z,61.30
2023-04-15T23:38:04.325Z,61.20
2023-04-15T23:40:34.636Z,61.10
2023-04-15T23:43:06.011Z,61.20
2023-04-15T23:45:39.188Z,61.00
2023-04-15T23:48:11.375Z,61.10
2023-04-15T23:50:39.679Z,61.00
2023-04-15T23:53:10.981Z,60.90
2023-04-15T23:55:40.900Z,60.90
2023-04-15T23:58:12.703Z,60.90
